Terminal Aerodrome Forecast
Issued by NWS

Home | Current Version | Previous Version | Text Only | Print | Product List | Glossary On
Versions: 1 2 3 4 5 6 7 8 9 10 11 12 13 14 15 16 17 18 19 20 21 22 23 24 25 26
396
FTUS43 KDLH 200533
TAFBRD
TAF
KBRD 200533Z 2006/2106 14014G21KT 6SM TSRA OVC035CB WS015/16050KT
      TEMPO 2006/2009 VRB20G37KT 1 1/2SM +TSRA BR BKN015CB OVC030
     FM200900 17010KT 6SM -SHRA BR VCTS BKN020CB OVC050
     FM201200 19007KT 6SM BR BKN010
     FM201400 25010KT P6SM BKN040
     FM201800 26011KT P6SM SCT040
     FM210000 23003KT P6SM SKC=

USA.gov is the U.S. government's official web portal to all federal, state and local government web resources and services.